Time;durP1;ratioP1;P1;durP2;ratioP2;P2;SDS_P1;SDS_P2;PMS_P1;PMS_P2;Temp;Humidity;BMP_temperature;BMP_pressure;BME280_temperature;BME280_humidity;BME280_pressure;Samples;Min_cycle;Max_cycle;Signal;HPM_P1;HPM_P2
2022/04/25 00:01:08;;;;;;;5.73;5.07;;;9.60;99.90;;;;;;5034471;28;20199;-44
2022/04/25 00:03:34;;;;;;;6.30;5.20;;;9.50;99.90;;;;;;5033212;28;20183;-40
2022/04/25 00:05:59;;;;;;;6.60;5.47;;;9.50;99.90;;;;;;5034938;28;20179;-42
2022/04/25 00:08:25;;;;;;;7.90;5.70;;;9.40;99.90;;;;;;5033281;28;20631;-43
2022/04/25 00:10:51;;;;;;;7.20;5.60;;;9.50;99.90;;;;;;5034172;28;20182;-42
2022/04/25 00:13:16;;;;;;;6.30;5.67;;;9.40;99.90;;;;;;5034551;28;20187;-42
2022/04/25 00:15:42;;;;;;;5.93;4.90;;;9.40;99.90;;;;;;5034434;28;20187;-44
2022/04/25 00:18:08;;;;;;;8.73;5.80;;;9.40;99.90;;;;;;5034061;28;20287;-42
2022/04/25 00:20:34;;;;;;;8.63;6.17;;;9.30;99.90;;;;;;5034203;28;20662;-43
2022/04/25 00:23:04;;;;;;;7.70;5.00;;;9.30;99.90;;;;;;5034540;28;20258;-40
2022/04/25 00:25:32;;;;;;;8.73;5.53;;;9.20;99.90;;;;;;5034178;28;20160;-44
2022/04/25 00:27:57;;;;;;;6.67;5.07;;;9.10;99.90;;;;;;5034233;28;20198;-42
2022/04/25 00:30:24;;;;;;;5.20;4.67;;;9.10;99.90;;;;;;5034006;28;20517;-43
2022/04/25 00:32:50;;;;;;;7.27;5.53;;;9.10;99.90;;;;;;5034103;28;20177;-42
2022/04/25 00:35:16;;;;;;;8.50;5.70;;;9.10;99.90;;;;;;5032737;28;20188;-44
2022/04/25 00:37:41;;;;;;;8.83;5.97;;;9.10;99.90;;;;;;5034094;28;20196;-42
2022/04/25 00:40:08;;;;;;;7.20;5.60;;;9.10;99.90;;;;;;5034344;28;20207;-43
2022/04/25 00:42:35;;;;;;;7.97;5.90;;;9.10;99.90;;;;;;5034802;28;20248;-42
2022/04/25 00:45:00;;;;;;;7.53;6.30;;;9.00;99.90;;;;;;5035448;28;20291;-42
2022/04/25 00:47:26;;;;;;;6.47;5.60;;;9.00;99.90;;;;;;5040346;28;20200;-43
2022/04/25 00:49:52;;;;;;;8.03;6.10;;;9.00;99.90;;;;;;5043090;28;20174;-43
2022/04/25 00:52:17;;;;;;;9.77;6.47;;;8.90;99.90;;;;;;5035579;28;20198;-43
2022/04/25 00:54:44;;;;;;;8.87;6.70;;;8.90;99.90;;;;;;5033895;28;20613;-45
2022/04/25 00:57:10;;;;;;;8.10;6.47;;;8.80;99.90;;;;;;5033779;28;20209;-43
2022/04/25 00:59:36;;;;;;;8.70;6.27;;;8.80;99.90;;;;;;5034058;28;20181;-41
2022/04/25 01:02:01;;;;;;;6.53;5.60;;;8.70;99.90;;;;;;5033719;28;20236;-42
2022/04/25 01:04:27;;;;;;;8.37;6.13;;;8.70;99.90;;;;;;5033795;28;20217;-43
2022/04/25 01:06:52;;;;;;;9.60;6.27;;;8.70;99.90;;;;;;5033253;28;20201;-45
2022/04/25 01:09:18;;;;;;;7.33;5.60;;;8.70;99.90;;;;;;5033712;28;20260;-42
2022/04/25 01:11:44;;;;;;;7.93;5.30;;;8.70;99.90;;;;;;5033634;28;20186;-43
2022/04/25 01:14:21;;;;;;;7.67;6.30;;;8.70;99.90;;;;;;5033755;28;20182;-42
2022/04/25 01:16:47;;;;;;;7.70;6.13;;;8.60;99.90;;;;;;5033683;28;20200;-42
2022/04/25 01:19:13;;;;;;;6.27;5.33;;;8.70;99.90;;;;;;5033331;28;20174;-41
2022/04/25 01:21:49;;;;;;;7.27;5.40;;;8.70;99.90;;;;;;5033644;28;20599;-40
2022/04/25 01:27:18;;;;;;;8.57;6.37;;;8.70;99.90;;;;;;5033670;28;20324;-41
2022/04/25 01:29:46;;;;;;;8.50;6.07;;;8.70;99.90;;;;;;5031994;28;20176;-44
2022/04/25 01:32:12;;;;;;;8.00;5.63;;;8.60;99.90;;;;;;5033136;28;20177;-42
2022/04/25 01:34:39;;;;;;;7.90;6.20;;;8.60;99.90;;;;;;5033059;28;20193;-44
2022/04/25 01:37:06;;;;;;;9.80;6.50;;;8.60;99.90;;;;;;5033094;28;20243;-43
2022/04/25 01:39:37;;;;;;;7.43;6.17;;;8.60;99.90;;;;;;5033332;28;20286;-40
2022/04/25 01:42:04;;;;;;;7.60;5.87;;;8.60;99.90;;;;;;5033145;28;20250;-43
2022/04/25 01:44:30;;;;;;;8.77;6.60;;;8.60;99.90;;;;;;5033086;28;20177;-40
2022/04/25 01:46:56;;;;;;;8.13;6.30;;;8.60;99.90;;;;;;5032985;28;20285;-41
2022/04/25 01:49:21;;;;;;;6.27;5.63;;;8.70;99.90;;;;;;5033350;28;20174;-41
2022/04/25 01:51:47;;;;;;;6.70;6.00;;;8.70;99.90;;;;;;5033325;28;20194;-42
2022/04/25 01:54:13;;;;;;;9.53;5.80;;;8.70;99.90;;;;;;5033172;28;20269;-43
2022/04/25 01:56:39;;;;;;;5.27;4.10;;;8.70;99.90;;;;;;5032867;28;20201;-43
2022/04/25 01:59:04;;;;;;;6.20;4.73;;;8.70;99.90;;;;;;5032947;28;20260;-43
2022/04/25 02:01:30;;;;;;;5.57;4.20;;;8.70;99.90;;;;;;5031574;28;20213;-41
2022/04/25 02:03:56;;;;;;;4.80;3.63;;;8.60;99.90;;;;;;5032931;28;20276;-41
2022/04/25 02:06:22;;;;;;;4.87;3.20;;;8.60;99.90;;;;;;5031516;28;20232;-42
2022/04/25 02:08:48;;;;;;;3.87;2.90;;;8.60;99.90;;;;;;5033270;28;20223;-42
2022/04/25 02:11:20;;;;;;;3.87;2.93;;;8.60;99.90;;;;;;5032868;28;20181;-43
2022/04/25 02:13:46;;;;;;;8.93;3.07;;;8.50;99.90;;;;;;5032934;28;20165;-39
2022/04/25 02:16:12;;;;;;;4.23;2.87;;;8.50;99.90;;;;;;5032731;28;20204;-39
2022/04/25 02:18:41;;;;;;;3.17;2.87;;;8.50;99.90;;;;;;5033606;28;20599;-42
2022/04/25 02:21:07;;;;;;;3.30;2.80;;;8.40;99.90;;;;;;5036597;28;20212;-42
2022/04/25 02:23:33;;;;;;;3.73;2.60;;;8.40;99.90;;;;;;5035007;28;20185;-42
2022/04/25 02:25:59;;;;;;;2.57;2.30;;;8.40;99.90;;;;;;5034914;28;20181;-39
2022/04/25 02:28:25;;;;;;;2.60;2.40;;;8.30;99.90;;;;;;5036218;28;20181;-41
2022/04/25 02:30:51;;;;;;;2.70;2.20;;;8.30;99.90;;;;;;5036907;28;20196;-43
2022/04/25 02:33:17;;;;;;;4.57;3.13;;;8.30;99.90;;;;;;5036034;28;20226;-41
2022/04/25 02:35:43;;;;;;;5.23;3.90;;;8.20;99.90;;;;;;5036331;28;20193;-42
2022/04/25 02:38:09;;;;;;;5.20;4.70;;;8.20;99.90;;;;;;5036109;28;20209;-41
2022/04/25 02:40:34;;;;;;;5.17;4.47;;;9.10;99.90;;;;;;5035901;28;20216;-41
2022/04/25 02:43:00;;;;;;;5.17;4.43;;;8.10;99.90;;;;;;5035924;28;20640;-42
2022/04/25 02:45:25;;;;;;;7.53;4.83;;;8.10;99.90;;;;;;5035974;28;20637;-43
2022/04/25 02:47:51;;;;;;;6.13;4.90;;;8.10;99.90;;;;;;5035898;28;20691;-44
2022/04/25 02:50:17;;;;;;;9.43;4.67;;;8.10;99.90;;;;;;5034569;28;20185;-41
2022/04/25 02:52:43;;;;;;;6.43;5.00;;;8.00;99.90;;;;;;5035839;28;20185;-41
2022/04/25 02:55:09;;;;;;;5.03;4.53;;;8.00;99.90;;;;;;5036018;28;20205;-42
2022/04/25 02:57:35;;;;;;;7.37;5.07;;;7.90;99.90;;;;;;5035697;28;20723;-42
2022/04/25 03:00:01;;;;;;;6.07;4.80;;;7.90;99.90;;;;;;5035841;28;20223;-40
2022/04/25 03:02:26;;;;;;;5.20;4.70;;;7.80;99.90;;;;;;5035856;28;20669;-42
2022/04/25 03:04:52;;;;;;;7.17;5.53;;;7.80;99.90;;;;;;5036304;28;20648;-42
2022/04/25 03:07:17;;;;;;;6.73;6.00;;;7.80;99.90;;;;;;5035775;28;20282;-40
2022/04/25 03:09:43;;;;;;;6.23;5.40;;;7.80;99.90;;;;;;5035450;28;20199;-43
2022/04/25 03:12:09;;;;;;;6.90;5.47;;;7.70;99.90;;;;;;5035429;28;20256;-42
2022/04/25 03:14:35;;;;;;;7.87;5.13;;;7.70;99.90;;;;;;5035774;28;20553;-43
2022/04/25 03:17:02;;;;;;;5.53;4.93;;;7.70;99.90;;;;;;5035785;28;20188;-41
2022/04/25 03:19:27;;;;;;;7.97;5.30;;;7.60;99.90;;;;;;5035535;28;20558;-43
2022/04/25 03:21:53;;;;;;;6.50;5.67;;;7.60;99.90;;;;;;5035431;28;20205;-44
2022/04/25 03:24:18;;;;;;;6.77;4.80;;;7.60;99.90;;;;;;5035440;28;20611;-41
2022/04/25 03:26:44;;;;;;;6.40;5.40;;;7.50;99.90;;;;;;5035414;28;20255;-41
2022/04/25 03:29:11;;;;;;;6.03;5.43;;;7.50;99.90;;;;;;5035220;28;20180;-42
2022/04/25 03:31:37;;;;;;;5.27;4.57;;;7.40;99.90;;;;;;5034192;28;20169;-40
2022/04/25 03:34:03;;;;;;;4.87;4.37;;;7.40;99.90;;;;;;5033792;28;20199;-41
2022/04/25 03:36:31;;;;;;;7.00;5.53;;;7.30;99.90;;;;;;5035187;28;20287;-41
2022/04/25 03:38:57;;;;;;;6.17;4.60;;;7.40;99.90;;;;;;5035326;28;20196;-42
2022/04/25 03:41:22;;;;;;;8.23;5.40;;;7.20;99.90;;;;;;5033904;28;20577;-41
2022/04/25 03:43:48;;;;;;;5.90;4.83;;;7.20;99.90;;;;;;5035204;28;20185;-40
2022/04/25 03:46:13;;;;;;;8.97;5.57;;;7.20;99.90;;;;;;5035383;28;20197;-41
2022/04/25 03:48:41;;;;;;;6.03;5.13;;;7.20;99.90;;;;;;5035055;28;20169;-41
2022/04/25 03:51:07;;;;;;;6.07;4.73;;;7.20;99.90;;;;;;5035718;28;20173;-42
2022/04/25 03:53:33;;;;;;;5.60;4.93;;;7.10;99.90;;;;;;5036140;28;20595;-43
2022/04/25 03:58:43;;;;;;;5.37;4.53;;;7.10;99.90;;;;;;5052834;28;20172;-41
2022/04/25 04:01:08;;;;;;;5.63;4.87;;;7.10;99.90;;;;;;5037085;28;20243;-41
2022/04/25 04:03:35;;;;;;;5.93;4.50;;;7.10;99.90;;;;;;5034622;28;20188;-41
2022/04/25 04:06:01;;;;;;;6.77;4.67;;;7.10;99.90;;;;;;5035021;28;20660;-42
2022/04/25 04:08:26;;;;;;;6.73;4.47;;;7.00;99.90;;;;;;5034308;28;20181;-43
2022/04/25 04:10:52;;;;;;;5.77;4.83;;;7.00;99.90;;;;;;5034314;28;20188;-43
2022/04/25 04:13:18;;;;;;;6.10;4.83;;;7.00;99.90;;;;;;5034700;28;20188;-43
2022/04/25 04:15:43;;;;;;;6.07;4.60;;;7.00;99.90;;;;;;5034526;28;20195;-42
2022/04/25 04:18:09;;;;;;;7.30;5.10;;;7.00;99.90;;;;;;5034037;28;20209;-41
2022/04/25 04:20:35;;;;;;;8.03;6.13;;;7.00;99.90;;;;;;5034230;28;20259;-41
2022/04/25 04:23:01;;;;;;;8.27;5.93;;;7.00;99.90;;;;;;5033197;28;20547;-40
2022/04/25 04:25:26;;;;;;;6.80;6.13;;;6.90;99.90;;;;;;5034291;28;20176;-41
2022/04/25 04:27:55;;;;;;;8.77;6.83;;;7.00;99.90;;;;;;5034179;28;20271;-40
2022/04/25 04:30:21;;;;;;;7.50;6.10;;;7.00;99.90;;;;;;5034324;28;20183;-41
2022/04/25 04:32:47;;;;;;;7.27;6.00;;;7.00;99.90;;;;;;5032904;28;20586;-41
2022/04/25 04:35:15;;;;;;;10.47;6.60;;;7.00;99.90;;;;;;5033874;28;20177;-42
2022/04/25 04:37:41;;;;;;;6.67;5.60;;;7.00;99.90;;;;;;5033823;28;20196;-41
2022/04/25 04:42:54;;;;;;;8.17;5.83;;;6.90;99.90;;;;;;5034306;28;20555;-41
2022/04/25 04:45:20;;;;;;;7.90;6.23;;;6.90;99.90;;;;;;5033729;28;20188;-39
2022/04/25 04:47:46;;;;;;;7.53;5.63;;;6.90;99.90;;;;;;5033852;28;20189;-40
2022/04/25 04:50:17;;;;;;;8.10;6.83;;;6.90;99.90;;;;;;5034138;28;20231;-40
2022/04/25 04:52:44;;;;;;;8.40;6.20;;;6.80;99.90;;;;;;5034066;28;20162;-41
2022/04/25 04:55:10;;;;;;;7.10;6.17;;;6.80;99.90;;;;;;5033929;28;20191;-41
2022/04/25 04:57:37;;;;;;;8.63;7.20;;;6.80;99.90;;;;;;5033834;28;20262;-41
2022/04/25 05:00:04;;;;;;;8.57;6.40;;;6.80;99.90;;;;;;5033849;28;20247;-41
2022/04/25 05:02:31;;;;;;;8.80;6.67;;;6.80;99.90;;;;;;5033524;28;20239;-42
2022/04/25 05:04:56;;;;;;;7.57;6.43;;;6.80;99.90;;;;;;5033658;28;20175;-44
2022/04/25 05:07:22;;;;;;;8.37;5.97;;;6.80;99.90;;;;;;5034742;28;20199;-41
2022/04/25 05:09:48;;;;;;;6.83;5.97;;;6.70;99.90;;;;;;5033617;28;20184;-41
2022/04/25 05:12:14;;;;;;;6.30;5.63;;;6.70;99.90;;;;;;5033493;28;20235;-40
2022/04/25 05:14:40;;;;;;;6.93;5.57;;;6.70;99.90;;;;;;5033256;28;20185;-43
2022/04/25 05:17:06;;;;;;;5.93;5.33;;;6.70;99.90;;;;;;5033515;28;20208;-41
2022/04/25 05:19:31;;;;;;;6.63;5.90;;;6.70;99.90;;;;;;5033864;28;20180;-42
2022/04/25 05:21:57;;;;;;;6.97;6.03;;;6.70;99.90;;;;;;5033314;28;20239;-41
2022/04/25 05:24:23;;;;;;;7.37;5.77;;;6.70;99.90;;;;;;5032045;28;20180;-41
2022/04/25 05:26:48;;;;;;;7.50;5.40;;;6.70;99.90;;;;;;5033200;28;20195;-42
2022/04/25 05:29:14;;;;;;;6.00;5.40;;;6.70;99.90;;;;;;5033493;28;20608;-41
2022/04/25 05:31:40;;;;;;;7.47;6.30;;;6.70;99.90;;;;;;5033501;28;20246;-44
2022/04/25 05:34:05;;;;;;;7.50;6.50;;;6.70;99.90;;;;;;5033442;28;20166;-41
2022/04/25 05:39:00;;;;;;;8.63;6.90;;;6.80;99.90;;;;;;5032419;28;20223;-44
2022/04/25 05:41:26;;;;;;;10.83;7.77;;;6.90;99.90;;;;;;5033276;28;20654;-44
2022/04/25 05:43:52;;;;;;;9.43;7.80;;;6.90;99.90;;;;;;5033374;28;20180;-43
2022/04/25 05:46:20;;;;;;;9.10;7.50;;;7.00;99.90;;;;;;5034485;28;20192;-45
2022/04/25 05:54:13;;;;;;;9.13;7.17;;;7.00;99.90;;;;;;5035040;28;20191;-44
2022/04/25 05:56:39;;;;;;;9.43;7.00;;;7.00;99.90;;;;;;5036761;28;20664;-45
2022/04/25 05:59:05;;;;;;;10.87;6.87;;;7.00;99.90;;;;;;5036778;28;20183;-43
2022/04/25 06:01:30;;;;;;;9.77;7.07;;;7.10;99.90;;;;;;5036616;28;20728;-43
2022/04/25 06:03:56;;;;;;;10.27;6.70;;;7.10;99.90;;;;;;5037509;28;20187;-44
2022/04/25 06:06:23;;;;;;;10.87;7.07;;;7.10;99.90;;;;;;5040106;28;20192;-45
2022/04/25 06:08:49;;;;;;;9.40;7.20;;;7.10;99.90;;;;;;5038502;28;20281;-44
2022/04/25 06:11:15;;;;;;;14.13;7.50;;;7.20;99.90;;;;;;5037224;28;20177;-44
2022/04/25 06:13:44;;;;;;;12.17;7.27;;;7.20;99.90;;;;;;5037013;28;20669;-43
2022/04/25 06:16:10;;;;;;;8.73;7.00;;;7.20;99.90;;;;;;5036297;28;20676;-47
2022/04/25 06:18:36;;;;;;;9.90;6.50;;;7.20;99.90;;;;;;5036332;28;20180;-46
2022/04/25 06:21:02;;;;;;;10.83;7.30;;;7.20;99.90;;;;;;5036268;28;20203;-43
2022/04/25 06:23:27;;;;;;;9.43;7.43;;;7.30;99.90;;;;;;5036572;28;20180;-42
2022/04/25 06:25:53;;;;;;;10.70;7.70;;;7.30;99.90;;;;;;5035039;28;20183;-44
2022/04/25 06:28:19;;;;;;;9.43;7.30;;;7.40;99.90;;;;;;5036375;28;20230;-44
2022/04/25 06:30:44;;;;;;;9.83;7.50;;;7.60;99.90;;;;;;5036021;28;20182;-46
2022/04/25 06:33:10;;;;;;;9.43;7.53;;;7.70;99.90;;;;;;5036350;28;20294;-43
2022/04/25 06:35:36;;;;;;;10.13;8.27;;;7.80;99.90;;;;;;5036497;28;20191;-43
2022/04/25 06:38:02;;;;;;;11.23;8.40;;;7.90;99.90;;;;;;5036246;28;20222;-43
2022/04/25 06:40:27;;;;;;;12.07;8.37;;;8.00;99.90;;;;;;5035839;28;20183;-45
2022/04/25 06:42:53;;;;;;;10.83;7.80;;;8.00;99.90;;;;;;5035864;28;20274;-44
2022/04/25 06:45:19;;;;;;;14.20;8.63;;;8.00;99.90;;;;;;5036113;28;20180;-43
2022/04/25 06:47:44;;;;;;;10.40;7.80;;;8.10;99.90;;;;;;5035962;28;20243;-44
2022/04/25 06:50:11;;;;;;;10.73;7.73;;;8.20;99.90;;;;;;5036071;28;20177;-44
2022/04/25 06:52:37;;;;;;;9.47;7.83;;;8.30;99.90;;;;;;5035665;28;20231;-44
2022/04/25 06:55:04;;;;;;;11.20;7.90;;;8.30;99.90;;;;;;5035905;28;20188;-45
2022/04/25 06:57:33;;;;;;;8.80;7.77;;;8.40;99.90;;;;;;5035717;28;20203;-45
2022/04/25 06:59:59;;;;;;;11.53;8.60;;;8.50;99.90;;;;;;5035595;28;20201;-44
2022/04/25 07:02:25;;;;;;;11.47;8.90;;;8.50;99.90;;;;;;5035577;28;20679;-45
2022/04/25 07:04:50;;;;;;;10.53;9.43;;;8.60;99.90;;;;;;5035603;28;20177;-44
2022/04/25 07:07:17;;;;;;;11.43;8.57;;;8.60;99.90;;;;;;5035449;28;20189;-46
2022/04/25 07:09:43;;;;;;;15.70;10.83;;;8.80;99.90;;;;;;5035720;28;20188;-44
2022/04/25 07:12:09;;;;;;;15.43;10.40;;;8.90;99.90;;;;;;5035582;28;20184;-45
2022/04/25 07:14:34;;;;;;;15.33;11.13;;;8.90;99.90;;;;;;5035715;28;20185;-46
2022/04/25 07:17:03;;;;;;;13.93;11.73;;;9.00;99.90;;;;;;5035887;28;20640;-44
2022/04/25 07:19:28;;;;;;;21.73;13.03;;;9.10;99.90;;;;;;5035488;28;20192;-44
2022/04/25 07:30:06;;;;;;;16.30;12.27;;;9.70;99.90;;;;;;5035319;28;20196;-45
2022/04/25 07:32:39;;;;;;;14.63;11.33;;;9.80;99.90;;;;;;5035008;28;20177;-45
2022/04/25 07:35:06;;;;;;;14.47;11.70;;;9.90;99.90;;;;;;5035359;28;20244;-44
2022/04/25 07:37:33;;;;;;;19.73;11.40;;;10.10;99.90;;;;;;5034870;28;20223;-44
2022/04/25 07:39:59;;;;;;;18.43;13.27;;;10.10;99.90;;;;;;5035501;28;20188;-44
2022/04/25 07:42:25;;;;;;;19.20;14.03;;;10.10;99.90;;;;;;5035036;28;20205;-44
2022/04/25 07:44:50;;;;;;;18.20;13.17;;;10.20;99.90;;;;;;5034841;28;20200;-44
2022/04/25 07:47:16;;;;;;;19.23;13.17;;;10.20;99.90;;;;;;5034920;28;20200;-46
2022/04/25 07:49:42;;;;;;;16.77;12.63;;;10.30;99.90;;;;;;5034852;28;20181;-43
2022/04/25 07:52:09;;;;;;;12.10;8.97;;;10.30;99.90;;;;;;5034811;28;20211;-44
2022/04/25 07:54:35;;;;;;;13.47;9.90;;;10.30;99.90;;;;;;5034725;28;20177;-44
2022/04/25 07:57:03;;;;;;;12.73;10.30;;;10.30;99.90;;;;;;5034499;28;20251;-42
2022/04/25 07:59:29;;;;;;;16.93;12.27;;;10.40;99.90;;;;;;5034521;28;20636;-43
2022/04/25 08:01:55;;;;;;;17.47;12.00;;;10.40;99.90;;;;;;5034327;28;20203;-46
2022/04/25 08:04:20;;;;;;;19.50;12.73;;;10.40;99.90;;;;;;5034414;28;20179;-43
2022/04/25 08:06:46;;;;;;;10.63;9.53;;;10.50;99.90;;;;;;5034808;28;20238;-43
2022/04/25 08:09:12;;;;;;;13.27;10.20;;;10.60;99.90;;;;;;5034624;28;20184;-44
2022/04/25 08:11:38;;;;;;;11.50;9.80;;;10.50;99.90;;;;;;5034475;28;20564;-44
2022/04/25 08:19:32;;;;;;;11.10;9.33;;;10.60;99.90;;;;;;5034696;28;20170;-43
2022/04/25 08:22:00;;;;;;;10.80;9.17;;;10.70;99.90;;;;;;5034389;28;20206;-44
2022/04/25 08:24:26;;;;;;;12.40;9.27;;;10.80;99.90;;;;;;5034597;28;20171;-44
2022/04/25 08:26:53;;;;;;;11.63;9.57;;;10.90;99.90;;;;;;5034374;28;20286;-44
2022/04/25 08:29:19;;;;;;;12.77;9.70;;;11.10;99.90;;;;;;5035370;28;20263;-43
2022/04/25 08:31:44;;;;;;;11.00;9.70;;;11.20;99.90;;;;;;5034524;28;20674;-43
2022/04/25 08:34:10;;;;;;;13.80;10.60;;;11.20;99.90;;;;;;5034607;28;20233;-45
2022/04/25 08:36:36;;;;;;;13.47;10.60;;;11.40;99.90;;;;;;5034314;28;20203;-44
2022/04/25 08:39:03;;;;;;;12.57;10.80;;;11.40;99.90;;;;;;5034172;28;20196;-44
2022/04/25 08:41:34;;;;;;;13.70;10.53;;;11.60;99.90;;;;;;5034063;28;20333;-43
2022/04/25 08:44:01;;;;;;;11.20;9.67;;;11.80;99.90;;;;;;5034270;28;20198;-44
2022/04/25 08:46:30;;;;;;;14.67;10.63;;;12.10;99.90;;;;;;5033937;28;20238;-44
2022/04/25 08:48:57;;;;;;;13.37;10.57;;;12.50;99.90;;;;;;5033626;28;20305;-43
2022/04/25 08:51:24;;;;;;;11.50;9.83;;;12.50;99.90;;;;;;5034095;28;20184;-43
2022/04/25 08:53:51;;;;;;;14.43;10.50;;;12.50;99.90;;;;;;5034003;28;20237;-46
2022/04/25 08:56:22;;;;;;;11.57;10.20;;;12.60;99.90;;;;;;5033840;28;20200;-44
2022/04/25 08:58:49;;;;;;;12.27;10.00;;;12.70;99.90;;;;;;5034164;28;20574;-43
2022/04/25 09:01:16;;;;;;;11.87;9.90;;;12.80;99.90;;;;;;5033882;28;20192;-44
2022/04/25 09:03:42;;;;;;;14.17;9.83;;;12.90;99.90;;;;;;5034320;28;20204;-41
2022/04/25 09:06:08;;;;;;;10.90;9.80;;;13.00;99.90;;;;;;5033533;28;20539;-39
2022/04/25 09:08:34;;;;;;;10.87;9.47;;;13.00;99.90;;;;;;5034410;28;20187;-40
2022/04/25 09:13:45;;;;;;;10.73;9.53;;;13.20;99.90;;;;;;5033912;28;20172;-39
2022/04/25 09:16:14;;;;;;;10.30;9.13;;;13.20;99.90;;;;;;5033531;28;20592;-39
2022/04/25 09:18:40;;;;;;;10.23;7.20;;;13.40;99.90;;;;;;5033385;28;20227;-42
2022/04/25 09:21:06;;;;;;;9.60;8.07;;;13.50;99.90;;;;;;5033232;28;20671;-40
2022/04/25 09:23:32;;;;;;;10.00;7.47;;;13.60;99.90;;;;;;5033534;28;20223;-40
2022/04/25 09:26:14;;;;;;;9.30;7.63;;;13.80;99.90;;;;;;5033109;28;20180;-39
2022/04/25 09:28:49;;;;;;;13.93;7.73;;;14.00;99.90;;;;;;5033963;28;20181;-41
2022/04/25 09:31:16;;;;;;;9.33;7.90;;;14.30;99.90;;;;;;5037359;28;20578;-39
2022/04/25 09:33:43;;;;;;;10.10;7.47;;;14.70;99.90;;;;;;5037291;28;20169;-41
2022/04/25 09:36:09;;;;;;;10.03;7.27;;;15.00;99.90;;;;;;5037086;28;20177;-43
2022/04/25 09:38:37;;;;;;;8.83;7.67;;;15.30;99.90;;;;;;5037053;28;20188;-43
2022/04/25 09:41:05;;;;;;;8.10;6.93;;;15.60;99.90;;;;;;5037336;28;20228;-40
2022/04/25 09:43:32;;;;;;;9.00;8.07;;;15.80;99.90;;;;;;5037350;28;20523;-41
2022/04/25 09:46:07;;;;;;;8.70;7.13;;;15.90;99.90;;;;;;5037530;28;20173;-39
2022/04/25 09:48:33;;;;;;;10.67;7.53;;;16.10;99.90;;;;;;5037361;28;20176;-42
2022/04/25 09:51:06;;;;;;;9.53;7.93;;;16.10;99.90;;;;;;5037238;28;20177;-46
2022/04/25 09:53:54;;;;;;;8.10;7.30;;;15.90;99.90;;;;;;5038023;28;20231;-45
2022/04/25 09:56:29;;;;;;;8.60;7.73;;;15.70;99.90;;;;;;5037255;28;20617;-40
2022/04/25 09:59:05;;;;;;;9.60;8.70;;;15.60;99.90;;;;;;5038143;28;20259;-45
2022/04/25 10:01:33;;;;;;;8.17;7.43;;;15.70;99.90;;;;;;5036983;28;20771;-45
2022/04/25 10:03:58;;;;;;;8.27;7.53;;;16.00;99.90;;;;;;5036891;28;20656;-45
2022/04/25 10:06:24;;;;;;;9.90;7.57;;;16.30;99.90;;;;;;5036965;28;20202;-45
2022/04/25 10:08:52;;;;;;;9.30;7.27;;;16.50;99.90;;;;;;5036943;28;20177;-45
2022/04/25 10:11:24;;;;;;;8.60;7.80;;;16.70;99.90;;;;;;5036730;28;20173;-45
2022/04/25 10:13:50;;;;;;;11.63;8.80;;;16.80;99.90;;;;;;5037538;28;20168;-45
2022/04/25 10:16:22;;;;;;;12.33;8.97;;;16.40;99.90;;;;;;5036885;28;20574;-46
2022/04/25 10:18:48;;;;;;;13.70;8.13;;;15.90;99.90;;;;;;5037187;28;20181;-46
2022/04/25 10:21:14;;;;;;;8.60;7.80;;;15.50;99.90;;;;;;5037306;28;20201;-46
2022/04/25 10:23:41;;;;;;;11.53;8.27;;;15.30;99.90;;;;;;5036099;28;20245;-47
2022/04/25 10:26:06;;;;;;;11.03;9.43;;;15.00;99.90;;;;;;5037796;28;20177;-45
2022/04/25 10:28:41;;;;;;;9.47;8.50;;;14.90;99.90;;;;;;5038643;28;20547;-47
2022/04/25 10:31:26;;;;;;;11.53;8.27;;;14.60;99.90;;;;;;5037209;28;20161;-46
2022/04/25 10:33:58;;;;;;;11.17;8.57;;;14.60;99.90;;;;;;5038069;28;20192;-45
2022/04/25 10:36:39;;;;;;;9.43;8.50;;;14.60;99.90;;;;;;5040315;28;20209;-46
2022/04/25 10:39:18;;;;;;;13.40;9.07;;;14.60;99.90;;;;;;5039758;28;20189;-44
2022/04/25 10:44:29;;;;;;;9.17;8.30;;;14.70;99.90;;;;;;5040822;28;20164;-45
2022/04/25 10:47:04;;;;;;;9.80;8.90;;;14.80;99.90;;;;;;5036226;28;20189;-46
2022/04/25 10:49:35;;;;;;;10.80;9.70;;;14.80;99.90;;;;;;5036998;28;20192;-46
2022/04/25 10:52:02;;;;;;;12.97;10.20;;;14.90;99.90;;;;;;5036326;28;20173;-44
2022/04/25 10:54:28;;;;;;;11.70;10.50;;;15.00;99.90;;;;;;5035809;28;20184;-46
2022/04/25 10:57:14;;;;;;;11.67;10.03;;;15.00;99.90;;;;;;5036019;28;20213;-46
2022/04/25 10:59:40;;;;;;;11.50;10.40;;;15.10;99.90;;;;;;5036067;28;20166;-45
2022/04/25 11:02:25;;;;;;;13.20;11.63;;;15.10;99.90;;;;;;5035592;28;20201;-46
2022/04/25 11:05:10;;;;;;;11.87;10.63;;;15.30;99.90;;;;;;5035956;28;20190;-46
2022/04/25 11:07:40;;;;;;;12.97;10.70;;;15.30;99.90;;;;;;5034903;28;20196;-45
2022/04/25 11:10:06;;;;;;;12.67;11.07;;;15.50;99.90;;;;;;5035809;28;20247;-46
2022/04/25 11:12:57;;;;;;;21.47;11.60;;;15.50;99.90;;;;;;5035524;28;20607;-46
2022/04/25 11:15:53;;;;;;;15.07;12.20;;;15.80;99.90;;;;;;5035730;28;20196;-45
2022/04/25 11:18:34;;;;;;;18.70;13.67;;;15.70;99.90;;;;;;5030861;28;20193;-47
2022/04/25 11:21:07;;;;;;;17.23;15.03;;;15.50;99.90;;;;;;5035907;28;20235;-46
2022/04/25 11:23:45;;;;;;;16.37;14.63;;;15.40;99.90;;;;;;5035513;28;20161;-47
2022/04/25 11:26:36;;;;;;;17.50;15.43;;;15.20;99.90;;;;;;5035678;28;20201;-47
2022/04/25 11:29:09;;;;;;;19.50;15.07;;;14.70;99.90;;;;;;5035023;28;20192;-45
2022/04/25 11:31:39;;;;;;;15.73;13.63;;;14.40;99.90;;;;;;5035360;28;20176;-45
2022/04/25 11:34:07;;;;;;;18.67;16.20;;;14.30;99.90;;;;;;5034960;28;20181;-47
2022/04/25 11:36:44;;;;;;;15.83;14.23;;;14.10;99.90;;;;;;5035113;28;20232;-45
2022/04/25 11:41:58;;;;;;;16.27;14.57;;;13.80;99.90;;;;;;5035366;28;20265;-44
2022/04/25 11:44:23;;;;;;;16.23;14.53;;;13.80;99.90;;;;;;5035534;28;20191;-45
2022/04/25 11:46:50;;;;;;;17.77;15.03;;;13.70;99.90;;;;;;5035336;28;20283;-45
2022/04/25 11:49:39;;;;;;;15.57;13.97;;;13.70;99.90;;;;;;5034989;28;20256;-45
2022/04/25 11:52:06;;;;;;;16.73;13.30;;;13.80;99.90;;;;;;5033956;28;20175;-45
2022/04/25 11:54:32;;;;;;;15.23;13.70;;;13.80;99.90;;;;;;5034851;28;20667;-44
2022/04/25 11:57:02;;;;;;;16.23;14.53;;;13.80;99.90;;;;;;5034543;28;20665;-46
2022/04/25 11:59:28;;;;;;;15.47;13.70;;;13.90;99.90;;;;;;5034557;28;20518;-47
2022/04/25 12:01:53;;;;;;;17.00;14.73;;;13.90;99.90;;;;;;5034651;28;20251;-47
2022/04/25 12:04:23;;;;;;;16.73;13.70;;;13.90;99.90;;;;;;5034381;28;20173;-46
2022/04/25 12:07:09;;;;;;;15.53;13.97;;;13.90;99.90;;;;;;5034523;28;20189;-45
2022/04/25 12:15:35;;;;;;;14.40;12.90;;;14.30;99.90;;;;;;5034524;28;20169;-45
2022/04/25 12:18:26;;;;;;;14.57;12.27;;;14.30;99.90;;;;;;5034154;28;20197;-46
2022/04/25 12:21:05;;;;;;;13.53;12.20;;;14.40;99.90;;;;;;5034319;28;20196;-46
2022/04/25 12:23:32;;;;;;;14.03;12.60;;;14.40;99.90;;;;;;5033996;28;20223;-46
2022/04/25 12:26:02;;;;;;;13.10;11.70;;;14.50;99.90;;;;;;5034191;28;20177;-46
2022/04/25 12:28:30;;;;;;;12.73;11.43;;;14.70;99.90;;;;;;5034297;28;20161;-46
2022/04/25 12:31:08;;;;;;;12.50;11.30;;;14.70;99.90;;;;;;5034241;28;20578;-45
2022/04/25 12:33:45;;;;;;;12.73;11.43;;;14.90;99.90;;;;;;5034017;28;20165;-46
2022/04/25 12:36:20;;;;;;;15.13;10.93;;;15.10;99.90;;;;;;5033746;28;20173;-47
2022/04/25 12:39:18;;;;;;;12.60;10.80;;;15.20;99.90;;;;;;5033738;28;20553;-45
2022/04/25 12:41:57;;;;;;;12.00;10.80;;;15.20;99.90;;;;;;5022059;28;20224;-46
2022/04/25 12:44:24;;;;;;;12.03;10.83;;;15.30;99.90;;;;;;5033949;28;20567;-45
2022/04/25 12:46:55;;;;;;;11.33;10.23;;;15.30;99.90;;;;;;5033857;28;20274;-47
2022/04/25 12:49:37;;;;;;;13.20;10.57;;;15.40;99.90;;;;;;5033756;28;20181;-46
2022/04/25 12:52:05;;;;;;;11.40;10.30;;;15.60;99.90;;;;;;5033922;28;20183;-46
2022/04/25 12:54:31;;;;;;;12.40;11.10;;;15.80;99.90;;;;;;5033627;28;20203;-45
2022/04/25 12:57:23;;;;;;;12.40;10.47;;;16.00;99.90;;;;;;5033695;28;20566;-46
2022/04/25 12:59:51;;;;;;;11.30;10.10;;;16.10;99.90;;;;;;5033897;28;20207;-47
2022/04/25 13:02:19;;;;;;;10.77;9.67;;;16.00;99.90;;;;;;5033502;28;20566;-47
2022/04/25 13:04:55;;;;;;;11.17;10.03;;;15.80;99.90;;;;;;5033382;28;20215;-45
2022/04/25 13:07:22;;;;;;;12.10;10.83;;;15.80;99.90;;;;;;5034295;28;20307;-47
2022/04/25 13:09:48;;;;;;;13.53;9.57;;;15.80;99.90;;;;;;5032184;28;20726;-46
2022/04/25 13:12:15;;;;;;;12.07;9.90;;;15.80;99.90;;;;;;5033793;28;20242;-47
2022/04/25 13:14:41;;;;;;;11.33;10.13;;;15.70;99.90;;;;;;5034488;28;20184;-47
2022/04/25 13:17:07;;;;;;;13.17;10.33;;;15.60;99.90;;;;;;5033558;28;20589;-48
2022/04/25 13:19:33;;;;;;;11.30;10.20;;;15.40;99.90;;;;;;5033317;28;20339;-48
2022/04/25 13:21:58;;;;;;;10.47;9.37;;;15.20;99.90;;;;;;5033214;28;20201;-48
2022/04/25 13:24:24;;;;;;;10.23;9.07;;;15.10;99.90;;;;;;5033357;28;20177;-47
2022/04/25 13:26:50;;;;;;;10.03;9.07;;;15.10;99.90;;;;;;5033134;28;20189;-46
2022/04/25 13:29:15;;;;;;;11.50;10.43;;;15.10;99.90;;;;;;5033303;28;20173;-48
2022/04/25 13:31:41;;;;;;;11.93;10.73;;;15.20;99.90;;;;;;5033558;28;20184;-46
2022/04/25 13:34:07;;;;;;;11.33;10.13;;;15.20;99.90;;;;;;5033436;28;20188;-47